createdAt,value
2022-10-12T08:32:01.756Z,5.78
2022-10-12T08:35:03.577Z,5.25
2022-10-12T08:38:05.113Z,3.67
2022-10-12T08:41:21.291Z,6.22
2022-10-12T08:44:47.310Z,6.00
2022-10-12T08:47:53.642Z,6.63
2022-10-12T08:50:59.036Z,6.35
2022-10-12T08:54:07.445Z,3.22
2022-10-12T08:57:17.517Z,3.47
2022-10-12T09:00:19.201Z,2.92
2022-10-12T09:03:41.281Z,4.30
2022-10-12T09:07:04.645Z,4.68
2022-10-12T09:10:27.393Z,5.18
2022-10-12T09:13:53.648Z,2.72
2022-10-12T09:16:56.059Z,3.95
2022-10-12T09:20:07.152Z,8.05
2022-10-12T09:23:24.264Z,5.43
2022-10-12T09:26:38.004Z,3.55
2022-10-12T09:29:39.594Z,7.88
2022-10-12T09:32:56.330Z,6.93
2022-10-12T09:35:57.957Z,2.78
2022-10-12T09:39:02.139Z,4.60
2022-10-12T09:42:03.945Z,3.70
2022-10-12T09:45:11.566Z,4.25
2022-10-12T09:48:21.946Z,2.80
2022-10-12T09:51:24.106Z,3.63
2022-10-12T09:54:27.893Z,5.38
2022-10-12T09:57:33.727Z,4.00
2022-10-12T10:00:35.839Z,2.63
2022-10-12T10:03:37.387Z,1.65
2022-10-12T10:06:42.354Z,2.55
2022-10-12T10:09:44.138Z,3.25
2022-10-12T10:12:58.261Z,4.18
2022-10-12T10:16:11.924Z,2.53
2022-10-12T10:19:18.915Z,3.47
2022-10-12T10:22:21.758Z,5.22
2022-10-12T10:25:24.417Z,4.88
2022-10-12T10:28:30.381Z,4.07
2022-10-12T10:31:35.472Z,3.47
2022-10-12T10:34:37.428Z,3.22
2022-10-12T10:37:59.559Z,4.50
2022-10-12T10:41:06.320Z,3.70
2022-10-12T10:44:35.065Z,2.45
2022-10-12T10:47:46.244Z,2.15
2022-10-12T10:51:01.039Z,2.38
2022-10-12T10:54:24.624Z,4.18
2022-10-12T10:57:26.941Z,3.25
2022-10-12T11:00:39.085Z,2.40
2022-10-12T11:04:01.717Z,4.30
2022-10-12T11:07:30.008Z,2.80
2022-10-12T11:10:37.334Z,2.70
2022-10-12T11:13:43.900Z,3.10
2022-10-12T11:17:06.843Z,3.17
2022-10-12T11:20:17.361Z,3.00
2022-10-12T11:23:38.032Z,2.65
2022-10-12T11:26:46.270Z,3.20
2022-10-12T11:30:02.759Z,3.97
2022-10-12T11:33:19.447Z,1.40
2022-10-12T11:36:24.404Z,3.10
2022-10-12T11:39:25.836Z,1.63
2022-10-12T11:42:43.257Z,3.08
2022-10-12T11:45:49.537Z,2.38
2022-10-12T11:49:01.420Z,2.40
2022-10-12T11:52:09.284Z,3.00
2022-10-12T11:55:33.962Z,2.90
2022-10-12T11:58:59.929Z,4.28
2022-10-12T12:02:19.870Z,4.53
2022-10-12T12:05:21.407Z,4.47
2022-10-12T12:08:40.754Z,4.35
2022-10-12T12:11:42.252Z,4.65
2022-10-12T12:14:52.904Z,3.85
2022-10-12T12:18:10.434Z,5.15
2022-10-12T12:21:11.925Z,3.28
2022-10-12T12:24:16.845Z,4.38
2022-10-12T12:27:38.780Z,5.93
2022-10-12T12:30:40.656Z,6.35
2022-10-12T12:33:46.452Z,4.53
2022-10-12T12:36:50.971Z,6.00
2022-10-12T12:39:56.127Z,3.30
2022-10-12T12:43:21.185Z,5.70
2022-10-12T12:46:25.208Z,4.88
2022-10-12T12:49:46.964Z,5.50
2022-10-12T12:52:48.802Z,7.38
2022-10-12T12:56:12.994Z,7.45
2022-10-12T12:59:52.272Z,6.38
2022-10-12T13:03:12.524Z,5.65
2022-10-12T13:06:31.854Z,5.93
2022-10-12T13:09:47.124Z,5.90
2022-10-12T13:13:01.856Z,6.18
2022-10-12T13:17:31.411Z,6.43
2022-10-12T13:20:15.192Z,6.70
2022-10-12T17:04:01.749Z,6.63
2022-10-12T17:07:03.375Z,13.15
2022-10-12T17:10:05.357Z,6.97
2022-10-12T17:13:06.994Z,5.97
2022-10-12T17:16:27.593Z,6.93
2022-10-12T17:19:39.879Z,5.60
2022-10-12T17:22:41.416Z,9.85
2022-10-12T17:25:43.874Z,10.95
2022-10-12T17:28:45.378Z,11.05
2022-10-12T17:31:48.096Z,8.70
2022-10-12T17:34:49.658Z,7.50
2022-10-12T17:37:51.124Z,11.38
2022-10-12T17:40:52.572Z,12.55
2022-10-12T17:43:54.119Z,11.00
2022-10-12T17:46:55.653Z,7.18
2022-10-12T17:49:58.145Z,11.90
2022-10-12T17:52:59.621Z,9.15
2022-10-12T17:56:04.221Z,8.32
2022-10-12T17:59:05.810Z,10.10
2022-10-12T18:02:09.613Z,8.75
2022-10-12T18:05:11.563Z,12.27
2022-10-12T18:08:13.036Z,7.60
2022-10-12T18:11:16.021Z,9.73
2022-10-12T18:14:17.708Z,10.20
2022-10-12T18:17:19.246Z,6.30
2022-10-12T18:20:21.061Z,8.93
2022-10-12T18:23:22.531Z,8.95
2022-10-12T18:26:24.906Z,9.98
2022-10-12T18:29:26.496Z,10.07
2022-10-12T18:32:28.061Z,7.95
2022-10-12T22:11:10.341Z,4.45
2022-10-12T22:14:15.004Z,4.77
2022-10-12T22:17:16.448Z,8.65
2022-10-12T22:20:19.628Z,5.05
2022-10-12T22:23:27.029Z,7.78
2022-10-12T22:26:29.264Z,6.40
2022-10-12T22:29:32.383Z,6.15
2022-10-12T22:32:34.230Z,8.30
2022-10-12T22:35:35.730Z,9.15
2022-10-12T22:38:37.231Z,5.05
2022-10-12T22:41:39.173Z,7.10
2022-10-12T22:44:40.904Z,4.80
2022-10-12T22:47:42.453Z,5.82
2022-10-12T22:50:44.857Z,5.32
2022-10-12T22:53:46.835Z,9.82
2022-10-12T22:56:48.288Z,6.55
2022-10-12T22:59:50.318Z,6.60
2022-10-12T23:02:51.881Z,7.00
2022-10-12T23:05:53.353Z,5.70
2022-10-12T23:08:55.337Z,6.70
2022-10-12T23:11:56.805Z,4.95
2022-10-12T23:14:58.284Z,18.20
2022-10-12T23:17:59.878Z,5.95
2022-10-12T23:21:09.919Z,6.53
2022-10-12T23:24:11.413Z,5.22
2022-10-12T23:27:13.182Z,6.28
2022-10-12T23:30:14.915Z,5.45
2022-10-12T23:33:16.387Z,5.13
2022-10-12T23:36:17.989Z,5.50
2022-10-12T23:39:19.596Z,5.32
2022-10-12T23:42:21.261Z,5.07
